Time;durP1;ratioP1;P1;durP2;ratioP2;P2;SDS_P1;SDS_P2;PMS_P1;PMS_P2;Temp;Humidity;BMP_temperature;BMP_pressure;BME280_temperature;BME280_humidity;BME280_pressure;Samples;Min_cycle;Max_cycle;Signal;HPM_P1;HPM_P2
2022/05/15 00:00:41;;;;;;;7.68;2.90;;;13.70;92.10;;;;;;6232731;28;20053;-84
2022/05/15 00:03:44;;;;;;;4.88;3.38;;;13.70;91.90;;;;;;6233759;28;20431;-84
2022/05/15 00:06:45;;;;;;;7.05;2.95;;;13.60;91.90;;;;;;6234273;28;20052;-84
2022/05/15 00:09:47;;;;;;;4.30;2.90;;;13.50;91.90;;;;;;6233432;28;20049;-85
2022/05/15 00:12:49;;;;;;;5.43;2.90;;;13.40;92.10;;;;;;6230873;28;20419;-84
2022/05/15 00:15:51;;;;;;;6.38;2.78;;;13.40;92.30;;;;;;6230821;28;20100;-85
2022/05/15 00:18:54;;;;;;;5.60;2.92;;;13.40;92.40;;;;;;6230847;28;20507;-85
2022/05/15 00:21:56;;;;;;;6.68;3.30;;;13.40;92.40;;;;;;6217388;28;20046;-85
2022/05/15 00:24:58;;;;;;;6.88;2.97;;;13.40;92.50;;;;;;6207589;28;20479;-83
2022/05/15 00:28:00;;;;;;;6.93;3.15;;;13.40;92.70;;;;;;6206803;28;20042;-85
2022/05/15 00:31:03;;;;;;;8.10;3.05;;;13.30;92.80;;;;;;6209099;28;20112;-85
2022/05/15 00:34:06;;;;;;;8.43;3.03;;;13.30;92.70;;;;;;6205886;28;20407;-84
2022/05/15 00:37:08;;;;;;;7.28;3.40;;;13.30;92.70;;;;;;6206089;28;20042;-84
2022/05/15 00:40:11;;;;;;;8.02;3.45;;;13.30;92.70;;;;;;6205771;28;20495;-84
2022/05/15 00:43:14;;;;;;;5.38;2.83;;;13.20;92.70;;;;;;6208474;28;20056;-84
2022/05/15 00:46:19;;;;;;;5.25;3.05;;;13.20;92.70;;;;;;6207614;28;20073;-85
2022/05/15 00:49:22;;;;;;;4.90;2.97;;;13.20;92.70;;;;;;6207227;28;20056;-85
2022/05/15 00:52:29;;;;;;;5.68;2.72;;;13.20;92.70;;;;;;6205216;28;20200;-84
2022/05/15 00:55:36;;;;;;;5.40;3.20;;;13.20;92.70;;;;;;6205228;28;20046;-83
2022/05/15 00:58:41;;;;;;;4.97;3.15;;;13.20;92.80;;;;;;6203814;28;20137;-83
2022/05/15 01:01:43;;;;;;;6.85;2.63;;;13.20;92.60;;;;;;6204068;28;20153;-84
2022/05/15 01:04:47;;;;;;;7.22;3.65;;;13.20;92.60;;;;;;6203644;28;20484;-84
2022/05/15 01:07:49;;;;;;;7.25;4.05;;;13.30;92.50;;;;;;6202561;28;20124;-84
2022/05/15 01:10:56;;;;;;;4.85;2.78;;;13.20;92.60;;;;;;6205227;28;20058;-84
2022/05/15 01:13:58;;;;;;;8.63;2.77;;;13.30;92.60;;;;;;6202056;28;20521;-86
2022/05/15 01:17:00;;;;;;;13.63;3.00;;;13.10;92.50;;;;;;6202852;28;20069;-81
2022/05/15 01:20:07;;;;;;;5.50;2.60;;;13.20;92.50;;;;;;6207286;28;20085;-84
2022/05/15 01:23:10;;;;;;;7.32;3.00;;;13.20;92.60;;;;;;6221014;28;20072;-83
2022/05/15 01:26:13;;;;;;;4.95;2.83;;;13.20;92.60;;;;;;6226054;28;20068;-83
2022/05/15 01:29:15;;;;;;;2.60;2.20;;;13.10;92.50;;;;;;6226143;28;20564;-85
2022/05/15 01:32:18;;;;;;;5.22;2.70;;;13.10;92.50;;;;;;6226775;28;20510;-85
2022/05/15 01:35:20;;;;;;;5.43;2.25;;;13.10;92.50;;;;;;6227514;28;20095;-85
2022/05/15 01:38:23;;;;;;;5.43;2.60;;;13.10;92.50;;;;;;6226766;28;20056;-83
2022/05/15 01:41:25;;;;;;;4.53;2.47;;;13.10;92.40;;;;;;6226234;28;20049;-82
2022/05/15 01:44:27;;;;;;;7.95;2.35;;;13.10;92.40;;;;;;6226204;28;20124;-83
2022/05/15 01:47:29;;;;;;;5.68;3.17;;;13.10;92.30;;;;;;6226120;28;20425;-83
2022/05/15 01:50:32;;;;;;;6.07;2.10;;;13.00;92.30;;;;;;6226839;28;20046;-82
2022/05/15 01:53:35;;;;;;;8.18;3.40;;;13.10;92.40;;;;;;6226724;28;20050;-84
2022/05/15 01:56:37;;;;;;;8.45;2.55;;;13.10;92.40;;;;;;6225877;28;20046;-82
2022/05/15 01:59:39;;;;;;;4.82;2.50;;;13.10;92.40;;;;;;6226264;28;20045;-82
2022/05/15 02:02:41;;;;;;;4.03;2.58;;;13.00;92.40;;;;;;6226710;28;20055;-84
2022/05/15 02:05:43;;;;;;;7.20;2.20;;;13.00;92.50;;;;;;6226711;28;20046;-84
2022/05/15 02:08:48;;;;;;;6.47;2.58;;;12.90;92.50;;;;;;6226495;28;20131;-84
2022/05/15 02:11:49;;;;;;;3.05;1.85;;;12.90;92.60;;;;;;6229303;28;20041;-84
2022/05/15 02:14:51;;;;;;;5.45;1.92;;;12.80;92.60;;;;;;6228751;28;20050;-83
2022/05/15 02:17:53;;;;;;;7.18;2.65;;;12.80;92.70;;;;;;6226994;28;20050;-83
2022/05/15 02:20:55;;;;;;;5.95;3.50;;;12.80;92.60;;;;;;6221764;28;20104;-83
2022/05/15 02:23:58;;;;;;;7.10;2.85;;;12.80;92.70;;;;;;6209917;28;20508;-83
2022/05/15 02:27:00;;;;;;;5.05;2.35;;;12.80;92.60;;;;;;6203763;28;20129;-83
2022/05/15 02:30:02;;;;;;;3.28;2.13;;;12.80;92.60;;;;;;6203996;28;20046;-84
2022/05/15 02:33:05;;;;;;;5.50;2.42;;;12.80;92.70;;;;;;6203748;28;20056;-83
2022/05/15 02:36:07;;;;;;;6.35;2.38;;;12.80;92.70;;;;;;6203408;28;20046;-83
2022/05/15 02:39:10;;;;;;;6.50;2.00;;;12.80;92.60;;;;;;6202871;28;20144;-84
2022/05/15 02:42:12;;;;;;;4.93;2.45;;;12.80;92.70;;;;;;6202089;28;20048;-84
2022/05/15 02:45:14;;;;;;;3.60;2.00;;;12.80;92.80;;;;;;6201349;28;20057;-84
2022/05/15 02:51:40;;;;;;;3.72;2.85;;;12.80;92.80;;;;;;6182425;28;20046;-83
2022/05/15 02:54:44;;;;;;;9.73;2.22;;;12.80;92.80;;;;;;6202095;28;20083;-83
2022/05/15 02:57:46;;;;;;;4.15;1.63;;;12.80;92.70;;;;;;6202058;28;20042;-83
2022/05/15 03:00:47;;;;;;;4.93;2.13;;;12.80;92.60;;;;;;6202074;28;20070;-82
2022/05/15 03:03:49;;;;;;;4.80;2.75;;;12.80;92.50;;;;;;6201664;28;20046;-82
2022/05/15 03:06:51;;;;;;;3.50;2.03;;;12.90;92.50;;;;;;6201662;28;20082;-83
2022/05/15 03:09:54;;;;;;;4.47;2.05;;;12.90;92.50;;;;;;6200483;28;20265;-82
2022/05/15 03:12:56;;;;;;;5.07;2.40;;;12.90;92.60;;;;;;6201475;28;20048;-82
2022/05/15 03:15:58;;;;;;;3.13;1.55;;;12.80;92.50;;;;;;6199050;28;20140;-82
2022/05/15 03:18:59;;;;;;;5.30;2.28;;;12.90;92.50;;;;;;6198989;28;20061;-83
2022/05/15 03:22:01;;;;;;;3.70;2.15;;;12.80;92.50;;;;;;6202894;28;20064;-82
2022/05/15 03:25:05;;;;;;;4.78;2.85;;;12.80;92.70;;;;;;6222824;28;20138;-83
2022/05/15 03:28:09;;;;;;;7.90;2.20;;;12.80;92.70;;;;;;6223377;28;20046;-82
2022/05/15 03:31:11;;;;;;;5.35;2.08;;;12.70;92.80;;;;;;6223440;28;20046;-81
2022/05/15 03:34:15;;;;;;;8.07;2.03;;;12.70;92.80;;;;;;6223048;28;20056;-81
2022/05/15 03:37:17;;;;;;;4.10;2.22;;;12.70;92.80;;;;;;6222898;28;20045;-81
2022/05/15 03:40:20;;;;;;;3.67;1.50;;;12.70;92.80;;;;;;6223395;28;20068;-81
2022/05/15 03:43:22;;;;;;;6.32;1.88;;;12.60;92.90;;;;;;6223123;28;20054;-81
2022/05/15 03:46:23;;;;;;;5.75;1.75;;;12.60;92.90;;;;;;6223824;28;20136;-81
2022/05/15 03:49:25;;;;;;;4.32;2.28;;;12.60;92.90;;;;;;6223224;28;20056;-81
2022/05/15 03:52:27;;;;;;;4.65;2.33;;;12.50;92.90;;;;;;6223165;28;20482;-81
2022/05/15 03:55:30;;;;;;;5.32;2.40;;;12.60;92.90;;;;;;6223424;28;20050;-81
2022/05/15 03:58:34;;;;;;;4.03;2.00;;;12.60;92.90;;;;;;6224445;28;20411;-82
2022/05/15 04:01:36;;;;;;;3.58;1.70;;;12.60;92.80;;;;;;6223398;28;20054;-81
2022/05/15 04:04:39;;;;;;;4.65;2.00;;;12.70;92.70;;;;;;6223724;28;20562;-81
2022/05/15 04:07:44;;;;;;;4.60;2.45;;;12.70;92.70;;;;;;6223688;28;20492;-81
2022/05/15 04:10:47;;;;;;;3.00;1.85;;;12.70;92.60;;;;;;6212831;28;20096;-81
2022/05/15 04:13:49;;;;;;;4.03;2.10;;;12.80;92.50;;;;;;6201336;28;20068;-81
2022/05/15 04:16:51;;;;;;;5.45;2.47;;;12.90;92.50;;;;;;6200081;28;20057;-81
2022/05/15 04:19:53;;;;;;;7.47;2.35;;;13.00;92.30;;;;;;6200072;28;20122;-81
2022/05/15 04:22:55;;;;;;;4.13;2.20;;;13.10;92.20;;;;;;6205736;28;20278;-81
2022/05/15 04:25:58;;;;;;;4.43;1.92;;;13.20;92.10;;;;;;6224090;28;20069;-81
2022/05/15 04:29:00;;;;;;;4.13;2.40;;;13.40;91.90;;;;;;6224385;28;20154;-81
2022/05/15 04:32:02;;;;;;;4.57;2.45;;;13.50;91.70;;;;;;6228589;28;20124;-81
2022/05/15 04:35:05;;;;;;;3.10;1.65;;;13.70;91.40;;;;;;6231423;28;20057;-81
2022/05/15 04:38:09;;;;;;;3.97;1.70;;;13.90;91.10;;;;;;6229445;28;20049;-81
2022/05/15 04:41:12;;;;;;;4.38;1.77;;;14.10;90.90;;;;;;6229970;28;20053;-81
2022/05/15 04:44:13;;;;;;;2.47;1.65;;;14.30;90.50;;;;;;6228939;28;20045;-81
2022/05/15 04:47:15;;;;;;;7.50;1.88;;;14.50;90.10;;;;;;6229173;28;20053;-80
2022/05/15 04:50:18;;;;;;;3.30;1.67;;;14.80;89.50;;;;;;6228891;28;20056;-81
2022/05/15 04:53:20;;;;;;;1.88;1.63;;;15.10;88.50;;;;;;6229676;28;20069;-82
2022/05/15 04:56:23;;;;;;;6.18;2.17;;;15.40;87.60;;;;;;6229206;28;20132;-81
2022/05/15 04:59:25;;;;;;;3.38;1.30;;;15.90;86.40;;;;;;6229055;28;20116;-81
2022/05/15 05:02:27;;;;;;;4.82;1.17;;;16.60;84.00;;;;;;6226884;28;20507;-82
2022/05/15 05:05:29;;;;;;;4.45;1.45;;;17.50;81.00;;;;;;6226555;28;20062;-80
2022/05/15 05:08:31;;;;;;;4.22;1.65;;;18.60;77.30;;;;;;6226609;28;20056;-82
2022/05/15 05:11:34;;;;;;;4.85;1.58;;;19.40;74.50;;;;;;6205834;28;20054;-81
2022/05/15 05:14:36;;;;;;;5.93;1.40;;;19.50;72.00;;;;;;6203038;28;20058;-82
2022/05/15 05:17:37;;;;;;;2.92;1.27;;;19.70;70.30;;;;;;6223000;28;20110;-83
2022/05/15 05:20:39;;;;;;;5.13;1.45;;;19.80;69.20;;;;;;6226794;28;20053;-81
2022/05/15 05:23:42;;;;;;;3.20;1.27;;;19.80;68.50;;;;;;6226050;28;20072;-80
2022/05/15 05:26:46;;;;;;;3.97;1.15;;;19.90;67.70;;;;;;6226741;28;20054;-80
2022/05/15 05:29:47;;;;;;;4.50;1.23;;;20.40;66.90;;;;;;6225962;28;20053;-81
2022/05/15 05:32:50;;;;;;;3.60;1.40;;;21.10;64.60;;;;;;6225685;28;20129;-80
2022/05/15 05:35:53;;;;;;;4.63;1.50;;;22.10;61.60;;;;;;6225774;28;20046;-81
2022/05/15 05:38:54;;;;;;;5.97;1.08;;;23.60;58.00;;;;;;6226180;28;20069;-82
2022/05/15 05:41:58;;;;;;;3.35;1.13;;;25.30;52.90;;;;;;6225672;28;20129;-80
2022/05/15 05:45:01;;;;;;;7.10;1.58;;;26.60;48.40;;;;;;6251510;23;20109;-84
2022/05/15 05:48:03;;;;;;;3.08;1.05;;;27.50;45.40;;;;;;6249275;28;20046;-85
2022/05/15 05:51:05;;;;;;;4.88;1.35;;;28.20;43.00;;;;;;6239622;28;20053;-85
2022/05/15 05:54:07;;;;;;;2.65;1.40;;;28.90;41.60;;;;;;6258922;28;20091;-84
2022/05/15 05:57:10;;;;;;;4.50;1.10;;;29.60;39.50;;;;;;6259384;28;20438;-83
2022/05/15 06:00:15;;;;;;;3.72;1.88;;;29.60;38.70;;;;;;6246112;28;20606;-83
2022/05/15 06:06:36;;;;;;;2.78;1.13;;;30.50;37.10;;;;;;6191134;28;20047;-86
2022/05/15 06:09:38;;;;;;;3.33;0.93;;;31.00;36.30;;;;;;6224662;28;20092;-84
2022/05/15 06:12:42;;;;;;;3.88;1.60;;;31.30;35.30;;;;;;6237706;28;20049;-84
2022/05/15 06:15:46;;;;;;;6.13;1.00;;;31.70;34.90;;;;;;6234139;28;20046;-86
2022/05/15 06:18:48;;;;;;;3.25;0.95;;;31.90;34.30;;;;;;6239479;28;20050;-85
2022/05/15 06:21:49;;;;;;;2.60;1.25;;;31.60;34.10;;;;;;6241349;28;20046;-85
2022/05/15 06:24:52;;;;;;;2.85;1.30;;;31.30;34.50;;;;;;6243038;28;20044;-83
2022/05/15 06:27:55;;;;;;;3.63;1.10;;;31.60;34.20;;;;;;6242336;28;20105;-82
2022/05/15 06:30:57;;;;;;;6.40;1.20;;;32.10;34.10;;;;;;6241590;28;20049;-84
2022/05/15 06:33:59;;;;;;;10.02;1.13;;;33.00;32.80;;;;;;6239844;28;20073;-86
2022/05/15 06:37:01;;;;;;;3.58;1.17;;;33.10;33.60;;;;;;6234999;28;20050;-84
2022/05/15 06:40:03;;;;;;;4.88;1.45;;;33.60;32.20;;;;;;6231033;28;20042;-83
2022/05/15 06:43:06;;;;;;;5.53;1.55;;;33.90;31.70;;;;;;6230460;28;20054;-82
2022/05/15 06:46:08;;;;;;;7.60;1.23;;;33.00;32.00;;;;;;6234061;28;20105;-82
2022/05/15 06:49:10;;;;;;;4.18;1.25;;;32.80;32.80;;;;;;6229280;28;20069;-82
2022/05/15 06:52:12;;;;;;;6.45;1.80;;;33.20;31.90;;;;;;6230292;28;20649;-83
2022/05/15 06:55:17;;;;;;;2.90;1.50;;;33.40;32.00;;;;;;6233750;28;20045;-86
2022/05/15 06:58:19;;;;;;;6.88;1.73;;;33.30;32.00;;;;;;6238520;28;20054;-85
2022/05/15 07:01:21;;;;;;;3.83;1.33;;;33.50;31.50;;;;;;6242153;28;20411;-86
2022/05/15 07:04:23;;;;;;;1.60;0.93;;;33.70;31.20;;;;;;6235096;28;20054;-85
2022/05/15 07:07:25;;;;;;;3.40;0.90;;;33.80;31.10;;;;;;6235451;28;20119;-85
2022/05/15 07:10:27;;;;;;;3.55;1.40;;;34.00;31.70;;;;;;6234875;28;20072;-85
2022/05/15 07:13:32;;;;;;;3.80;1.10;;;34.30;30.90;;;;;;6232581;28;20057;-85
2022/05/15 07:16:33;;;;;;;4.50;1.20;;;34.00;31.00;;;;;;6232501;28;20052;-85
2022/05/15 07:19:35;;;;;;;8.60;1.42;;;33.80;31.60;;;;;;6233273;28;20050;-84
2022/05/15 07:22:38;;;;;;;3.65;1.33;;;34.20;31.50;;;;;;6233181;28;20456;-86
2022/05/15 07:25:39;;;;;;;3.17;0.88;;;34.40;32.40;;;;;;6233056;28;20102;-86
2022/05/15 07:28:45;;;;;;;3.75;1.20;;;35.20;31.40;;;;;;6231166;28;20584;-85
2022/05/15 07:31:50;;;;;;;4.00;1.05;;;35.70;30.50;;;;;;6232065;28;20042;-86
2022/05/15 07:34:52;;;;;;;5.45;1.90;;;35.70;30.70;;;;;;6233328;28;20138;-86
2022/05/15 07:37:54;;;;;;;4.90;0.82;;;35.70;30.20;;;;;;6232025;28;20045;-86
2022/05/15 07:40:55;;;;;;;2.03;1.10;;;35.80;30.30;;;;;;6231300;28;20396;-85
2022/05/15 07:43:59;;;;;;;9.40;1.13;;;36.00;30.50;;;;;;6231458;28;20042;-85
2022/05/15 07:47:00;;;;;;;2.80;1.10;;;36.80;29.80;;;;;;6231425;28;20131;-85
2022/05/15 07:50:02;;;;;;;2.60;0.82;;;37.20;29.60;;;;;;6229243;28;20081;-86
2022/05/15 07:53:05;;;;;;;5.93;0.65;;;37.50;29.30;;;;;;6229548;28;20124;-85
2022/05/15 07:56:09;;;;;;;4.50;0.77;;;37.20;29.40;;;;;;6225217;28;20092;-84
2022/05/15 07:59:12;;;;;;;5.18;1.50;;;35.20;30.30;;;;;;6227736;28;20451;-83
2022/05/15 08:02:14;;;;;;;1.58;0.70;;;32.90;32.70;;;;;;6226078;28;20474;-81
2022/05/15 08:08:37;;;;;;;5.63;1.13;;;29.60;36.60;;;;;;6229738;28;20057;-82
2022/05/15 08:11:39;;;;;;;6.07;0.90;;;28.70;38.80;;;;;;6230175;28;20525;-82
2022/05/15 08:14:43;;;;;;;6.38;0.85;;;28.10;39.10;;;;;;6231538;28;20046;-80
2022/05/15 08:17:44;;;;;;;4.28;1.15;;;27.80;39.80;;;;;;6230473;28;20045;-83
2022/05/15 08:24:07;;;;;;;1.80;0.90;;;27.20;41.60;;;;;;6230432;28;20050;-81
2022/05/15 08:27:10;;;;;;;5.18;0.50;;;27.20;40.60;;;;;;6222298;28;20574;-81
2022/05/15 08:30:15;;;;;;;3.08;0.85;;;27.00;40.10;;;;;;6228706;28;20539;-83
2022/05/15 08:33:17;;;;;;;1.58;0.60;;;27.00;40.70;;;;;;6227976;28;20046;-83
2022/05/15 08:36:19;;;;;;;5.20;0.80;;;27.10;41.60;;;;;;6231922;28;20038;-82
2022/05/15 08:39:21;;;;;;;2.55;0.60;;;27.40;40.60;;;;;;6229616;28;20053;-83
2022/05/15 08:42:29;;;;;;;3.97;0.85;;;27.40;40.40;;;;;;6233774;28;20236;-82
2022/05/15 08:45:39;;;;;;;2.33;0.85;;;27.50;40.50;;;;;;6229537;28;20124;-83
2022/05/15 08:48:40;;;;;;;2.00;0.70;;;27.90;41.10;;;;;;6230992;28;20068;-84
2022/05/15 08:51:53;;;;;;;2.90;0.60;;;28.20;40.00;;;;;;6229437;28;20046;-84
2022/05/15 08:55:01;;;;;;;5.13;1.10;;;28.30;38.80;;;;;;6228734;28;20224;-83
2022/05/15 08:58:06;;;;;;;5.07;1.13;;;28.30;38.60;;;;;;6230137;28;20056;-83
2022/05/15 09:01:13;;;;;;;2.78;0.60;;;28.40;38.80;;;;;;6228842;28;20046;-82
2022/05/15 09:04:15;;;;;;;3.25;0.75;;;28.40;38.20;;;;;;6229401;28;20181;-83
2022/05/15 09:07:31;;;;;;;2.83;0.60;;;28.40;38.50;;;;;;6229458;28;20411;-82
2022/05/15 09:10:38;;;;;;;1.90;0.55;;;28.30;38.50;;;;;;6205059;28;20046;-83
2022/05/15 09:13:41;;;;;;;2.58;0.80;;;28.30;39.10;;;;;;6223786;28;20050;-83
2022/05/15 09:16:55;;;;;;;3.90;1.00;;;28.20;38.20;;;;;;6228902;28;20177;-82
2022/05/15 09:20:00;;;;;;;3.35;0.73;;;28.30;38.80;;;;;;6229051;28;20065;-83
2022/05/15 09:23:09;;;;;;;4.47;0.60;;;28.40;38.80;;;;;;6229159;28;20052;-82
2022/05/15 09:26:16;;;;;;;2.92;0.75;;;28.30;38.90;;;;;;6223233;28;20042;-82
2022/05/15 09:29:21;;;;;;;4.00;1.52;;;28.50;38.20;;;;;;6226885;28;20533;-84
2022/05/15 09:32:30;;;;;;;2.95;0.93;;;28.60;38.30;;;;;;6228844;28;20056;-83
2022/05/15 09:35:35;;;;;;;2.65;0.60;;;28.70;39.10;;;;;;6214873;28;20181;-83
2022/05/15 09:38:37;;;;;;;2.25;0.63;;;29.10;37.90;;;;;;6229248;28;20049;-83
2022/05/15 09:44:58;;;;;;;3.33;0.63;;;29.10;37.60;;;;;;6228440;28;20475;-84
2022/05/15 09:48:04;;;;;;;4.20;1.17;;;28.90;36.80;;;;;;6227656;28;20521;-82
2022/05/15 09:51:11;;;;;;;1.42;1.00;;;28.60;37.40;;;;;;6229088;28;20046;-82
2022/05/15 09:54:28;;;;;;;5.93;0.60;;;28.70;37.50;;;;;;6181892;28;20132;-83
2022/05/15 09:57:30;;;;;;;5.22;0.88;;;28.70;38.00;;;;;;6227498;28;20038;-83
2022/05/15 10:00:36;;;;;;;4.57;0.70;;;29.40;36.90;;;;;;6228068;28;20064;-81
2022/05/15 10:03:39;;;;;;;3.28;1.23;;;30.60;35.30;;;;;;6229329;28;20050;-83
2022/05/15 10:06:50;;;;;;;3.90;0.85;;;31.30;34.90;;;;;;6229306;28;20050;-83
2022/05/15 10:09:52;;;;;;;2.60;0.65;;;31.10;33.90;;;;;;6228314;28;20530;-83
2022/05/15 10:13:00;;;;;;;2.05;0.80;;;30.60;34.90;;;;;;6226324;28;20046;-83
2022/05/15 10:16:07;;;;;;;8.43;0.57;;;30.10;36.00;;;;;;6226404;28;20041;-82
2022/05/15 10:19:19;;;;;;;2.90;0.50;;;29.80;36.20;;;;;;6227445;28;20050;-82
2022/05/15 10:22:35;;;;;;;3.35;0.80;;;29.70;35.90;;;;;;6228408;28;20136;-84
2022/05/15 10:25:43;;;;;;;2.25;0.70;;;29.60;36.10;;;;;;6227584;28;20129;-84
2022/05/15 10:28:52;;;;;;;2.60;0.57;;;29.70;36.50;;;;;;6226302;28;20080;-84
2022/05/15 10:31:59;;;;;;;1.65;0.45;;;29.90;36.20;;;;;;6225638;28;20131;-84
2022/05/15 10:35:02;;;;;;;3.20;0.50;;;29.90;35.40;;;;;;6226286;28;20052;-84
2022/05/15 10:38:13;;;;;;;4.70;0.75;;;29.80;35.70;;;;;;6225627;28;20042;-83
2022/05/15 10:41:19;;;;;;;1.98;0.40;;;29.80;36.10;;;;;;6226919;28;20056;-83
2022/05/15 10:44:43;;;;;;;2.08;0.60;;;29.90;35.70;;;;;;6228523;28;20061;-84
2022/05/15 10:47:56;;;;;;;1.45;0.60;;;30.20;35.20;;;;;;6227587;28;20045;-83
2022/05/15 10:51:04;;;;;;;1.77;0.52;;;30.50;34.70;;;;;;6228283;28;20539;-84
2022/05/15 10:57:43;;;;;;;1.23;0.47;;;30.60;34.90;;;;;;6221940;28;20042;-84
2022/05/15 11:00:57;;;;;;;6.05;0.90;;;30.70;33.90;;;;;;6228773;28;20419;-85
2022/05/15 11:04:06;;;;;;;1.73;0.50;;;30.60;34.60;;;;;;6236036;28;20038;-85
2022/05/15 11:07:17;;;;;;;5.15;0.70;;;30.50;34.70;;;;;;6233134;28;20041;-86
2022/05/15 11:10:25;;;;;;;5.30;0.63;;;30.10;35.10;;;;;;6232363;28;20089;-84
2022/05/15 11:13:35;;;;;;;1.25;0.43;;;30.30;35.40;;;;;;6234438;28;20065;-85
2022/05/15 11:16:49;;;;;;;4.18;0.80;;;30.40;35.50;;;;;;6228879;28;20049;-86
2022/05/15 11:19:57;;;;;;;3.78;0.55;;;30.70;36.30;;;;;;6232393;28;20048;-87
2022/05/15 11:23:07;;;;;;;3.47;0.80;;;31.10;35.70;;;;;;6232052;28;20488;-85
2022/05/15 11:26:17;;;;;;;2.40;0.80;;;31.40;35.80;;;;;;6229986;28;20046;-84
2022/05/15 11:29:20;;;;;;;2.92;0.75;;;31.30;34.70;;;;;;6226978;28;20049;-86
2022/05/15 11:32:35;;;;;;;2.97;0.65;;;31.20;35.30;;;;;;6220321;28;20140;-85
2022/05/15 11:35:40;;;;;;;2.13;0.75;;;31.20;35.00;;;;;;6228068;28;20096;-86
2022/05/15 11:39:00;;;;;;;3.58;0.63;;;31.20;35.20;;;;;;6226612;28;20419;-86
2022/05/15 11:42:17;;;;;;;4.00;0.52;;;30.80;35.20;;;;;;6227448;28;20060;-86
2022/05/15 11:45:39;;;;;;;2.40;0.73;;;31.00;36.20;;;;;;6228462;28;20053;-85
2022/05/15 11:48:56;;;;;;;1.90;0.70;;;31.00;36.00;;;;;;6226469;28;20053;-85
2022/05/15 11:52:18;;;;;;;2.25;0.57;;;31.10;35.60;;;;;;6226993;28;20092;-86
2022/05/15 11:55:47;;;;;;;3.92;0.90;;;31.20;35.80;;;;;;6228632;28;20054;-85
2022/05/15 11:58:54;;;;;;;5.22;0.60;;;31.50;34.40;;;;;;6225446;28;20052;-85
2022/05/15 12:01:57;;;;;;;;;;;31.40;35.00;;;;;;6228627;28;20042;-84
2022/05/15 12:05:03;;;;;;;6.55;0.82;;;31.60;34.90;;;;;;6226971;28;19921;-81
2022/05/15 12:08:30;;;;;;;2.22;0.70;;;32.00;34.80;;;;;;6226916;28;20048;-83
2022/05/15 12:11:36;;;;;;;2.90;0.63;;;32.20;33.70;;;;;;6227306;28;20459;-81
2022/05/15 12:14:38;;;;;;;3.10;0.70;;;31.70;34.10;;;;;;6231879;28;20064;-83
2022/05/15 12:17:43;;;;;;;1.67;0.52;;;31.40;34.80;;;;;;6229018;28;20050;-85
2022/05/15 12:20:47;;;;;;;2.28;1.08;;;31.30;35.00;;;;;;6225021;28;20494;-86
2022/05/15 12:27:22;;;;;;;6.72;1.52;;;31.50;35.70;;;;;;6224248;28;20092;-80
2022/05/15 12:30:24;;;;;;;2.10;0.85;;;31.80;34.90;;;;;;6224638;28;20081;-82
2022/05/15 12:33:30;;;;;;;6.13;0.85;;;32.00;34.50;;;;;;6223426;28;20054;-82
2022/05/15 12:36:34;;;;;;;2.33;0.63;;;32.20;34.50;;;;;;6225145;28;20084;-80
2022/05/15 12:39:40;;;;;;;1.98;0.70;;;32.50;34.30;;;;;;6225164;28;20046;-85
2022/05/15 12:42:43;;;;;;;4.03;0.90;;;32.70;33.80;;;;;;6225963;28;20050;-83
2022/05/15 12:45:44;;;;;;;2.88;0.93;;;32.70;33.60;;;;;;6226624;28;20050;-83
2022/05/15 12:48:46;;;;;;;1.70;0.50;;;32.60;33.30;;;;;;6226618;28;20042;-84
2022/05/15 12:51:48;;;;;;;2.17;0.60;;;32.50;33.50;;;;;;6227693;28;20057;-84
2022/05/15 12:54:57;;;;;;;3.70;0.77;;;32.50;33.60;;;;;;6230141;28;20058;-81
2022/05/15 12:58:05;;;;;;;2.42;1.00;;;32.50;33.60;;;;;;6225959;28;20404;-81
2022/05/15 13:01:07;;;;;;;1.45;0.82;;;32.30;34.30;;;;;;6228285;28;20052;-80
2022/05/15 13:04:17;;;;;;;2.95;0.52;;;32.80;34.00;;;;;;6228565;28;20049;-86
2022/05/15 13:07:24;;;;;;;2.40;0.63;;;32.90;33.20;;;;;;6215321;28;20046;-85
2022/05/15 13:10:30;;;;;;;2.03;0.93;;;32.90;33.30;;;;;;6204698;28;20053;-83
2022/05/15 13:13:35;;;;;;;1.88;0.75;;;32.70;33.80;;;;;;6203926;28;20048;-85
2022/05/15 13:16:41;;;;;;;0.82;0.60;;;32.60;33.20;;;;;;6205094;28;20046;-86
2022/05/15 13:19:47;;;;;;;5.15;0.80;;;32.50;33.20;;;;;;6205543;28;20042;-83
2022/05/15 13:22:50;;;;;;;1.00;0.47;;;32.50;33.90;;;;;;6206673;28;20492;-84
2022/05/15 13:25:55;;;;;;;3.50;0.77;;;32.70;33.70;;;;;;6228028;28;20102;-84
2022/05/15 13:29:02;;;;;;;4.20;0.82;;;32.60;33.60;;;;;;6228810;28;20125;-85
2022/05/15 13:32:05;;;;;;;3.10;0.93;;;32.70;34.10;;;;;;6229385;28;20052;-85
2022/05/15 13:35:08;;;;;;;3.33;0.60;;;32.90;32.90;;;;;;6227126;28;20510;-83
2022/05/15 13:38:24;;;;;;;6.35;0.82;;;32.80;33.30;;;;;;6226592;28;20508;-81
2022/05/15 13:44:50;;;;;;;2.13;0.60;;;32.90;33.50;;;;;;6230607;28;20046;-85
2022/05/15 13:48:03;;;;;;;3.50;0.60;;;33.10;33.60;;;;;;6228611;28;20066;-81
2022/05/15 13:51:05;;;;;;;6.13;0.80;;;33.20;33.20;;;;;;6227629;28;20431;-85
2022/05/15 13:54:11;;;;;;;3.30;0.90;;;33.00;32.90;;;;;;6227397;28;20044;-86
2022/05/15 13:57:13;;;;;;;0.93;0.40;;;32.70;32.70;;;;;;6220377;28;20046;-85
2022/05/15 14:00:25;;;;;;;2.13;0.60;;;32.60;33.50;;;;;;6227072;28;20285;-85
2022/05/15 14:03:31;;;;;;;6.47;0.80;;;32.50;33.20;;;;;;6226214;28;20495;-85
2022/05/15 14:06:34;;;;;;;1.55;0.75;;;32.50;33.80;;;;;;6227506;28;20049;-84
2022/05/15 14:09:45;;;;;;;1.80;0.50;;;32.50;33.20;;;;;;6226409;28;20046;-84
2022/05/15 14:12:49;;;;;;;4.60;0.75;;;32.50;33.30;;;;;;6227634;28;20054;-86
2022/05/15 14:15:53;;;;;;;2.67;0.55;;;32.30;33.60;;;;;;6228189;28;20514;-86
2022/05/15 14:18:55;;;;;;;1.48;0.70;;;32.20;33.90;;;;;;6228687;28;20048;-84
2022/05/15 14:21:59;;;;;;;4.00;0.70;;;32.20;33.70;;;;;;6228907;28;20547;-86
2022/05/15 14:25:01;;;;;;;0.80;0.60;;;32.50;33.50;;;;;;6228753;28;20520;-86
2022/05/15 14:28:03;;;;;;;4.13;0.55;;;32.40;33.30;;;;;;6228223;28;20049;-85
2022/05/15 14:31:08;;;;;;;5.40;0.77;;;32.50;33.60;;;;;;6228086;28;20496;-85
2022/05/15 14:34:10;;;;;;;4.45;0.68;;;32.30;33.60;;;;;;6227559;28;20114;-83
2022/05/15 14:37:12;;;;;;;3.72;1.10;;;32.20;33.60;;;;;;6229044;28;20077;-85
2022/05/15 14:40:16;;;;;;;1.05;0.32;;;32.30;33.80;;;;;;6233189;28;20559;-89
2022/05/15 14:43:24;;;;;;;4.15;0.93;;;32.50;33.60;;;;;;6239994;28;20570;-87
2022/05/15 14:46:30;;;;;;;6.88;1.33;;;32.30;33.50;;;;;;6240290;28;20490;-86
2022/05/15 14:49:35;;;;;;;2.50;0.80;;;32.30;33.90;;;;;;6240152;28;20542;-86
2022/05/15 14:52:38;;;;;;;2.00;0.68;;;32.20;34.40;;;;;;6241598;28;20058;-87
2022/05/15 14:59:10;;;;;;;2.60;0.70;;;32.30;33.70;;;;;;6239308;28;20050;-85
2022/05/15 15:02:14;;;;;;;3.10;0.60;;;32.40;33.80;;;;;;6234309;28;20114;-84
2022/05/15 15:05:18;;;;;;;6.25;0.88;;;32.50;33.70;;;;;;6232736;28;20046;-84
2022/05/15 15:08:22;;;;;;;3.33;0.70;;;32.40;33.20;;;;;;6231237;28;20054;-84
2022/05/15 15:11:26;;;;;;;3.05;0.60;;;32.20;33.40;;;;;;6225898;28;20427;-82
2022/05/15 15:14:29;;;;;;;1.95;0.50;;;32.00;33.70;;;;;;6225717;28;20050;-81
2022/05/15 15:17:32;;;;;;;3.80;0.80;;;32.00;33.80;;;;;;6225335;28;20050;-85
2022/05/15 15:20:35;;;;;;;4.22;0.88;;;31.90;33.70;;;;;;6224385;28;20054;-82
2022/05/15 15:23:39;;;;;;;3.50;1.10;;;31.90;33.80;;;;;;6225539;28;20073;-86
2022/05/15 15:26:41;;;;;;;3.88;0.73;;;31.80;34.10;;;;;;6224754;28;20399;-86
2022/05/15 15:29:43;;;;;;;0.93;0.52;;;32.00;34.50;;;;;;6224972;28;20038;-83
2022/05/15 15:32:46;;;;;;;2.88;0.93;;;32.10;33.50;;;;;;6225205;28;20057;-82
2022/05/15 15:35:48;;;;;;;3.15;0.65;;;32.00;33.40;;;;;;6224332;28;20220;-84
2022/05/15 15:38:51;;;;;;;4.00;0.57;;;31.90;34.20;;;;;;6225573;28;20144;-86
2022/05/15 15:41:55;;;;;;;1.92;0.82;;;31.70;33.80;;;;;;6223098;28;20048;-86
2022/05/15 15:50:02;;;;;;;2.72;0.88;;;31.10;34.30;;;;;;6191105;28;20113;-89
2022/05/15 15:53:04;;;;;;;2.70;0.90;;;30.80;34.70;;;;;;6242694;28;20510;-86
2022/05/15 15:59:57;;;;;;;2.42;0.63;;;30.60;35.30;;;;;;6210918;28;20523;-85
2022/05/15 16:02:59;;;;;;;1.35;0.57;;;30.40;35.00;;;;;;6228785;28;20054;-82
2022/05/15 16:06:03;;;;;;;1.77;0.60;;;30.30;35.40;;;;;;6227052;28;20045;-84
2022/05/15 16:12:33;;;;;;;1.90;0.40;;;30.20;35.40;;;;;;6233012;28;20499;-82
2022/05/15 16:31:30;;;;;;;3.05;0.77;;;29.70;36.20;;;;;;6047913;29;20056;-87
2022/05/15 16:38:10;;;;;;;4.50;0.70;;;29.70;36.80;;;;;;6207604;28;20046;-85
2022/05/15 16:44:48;;;;;;;3.95;1.10;;;29.40;37.10;;;;;;6206144;28;20075;-84
2022/05/15 16:47:51;;;;;;;2.28;0.80;;;29.30;37.80;;;;;;6207959;28;20105;-85
2022/05/15 16:50:53;;;;;;;3.58;0.93;;;29.20;38.30;;;;;;6230890;28;20057;-85
2022/05/15 16:53:56;;;;;;;8.45;1.27;;;29.10;38.40;;;;;;6233568;28;20065;-81
2022/05/15 16:56:58;;;;;;;2.70;0.73;;;29.10;38.70;;;;;;6231802;28;20101;-83
2022/05/15 17:00:04;;;;;;;3.97;1.05;;;29.00;38.50;;;;;;6230234;28;20114;-83
2022/05/15 17:03:07;;;;;;;4.18;0.68;;;28.90;39.00;;;;;;6231814;28;20054;-84
2022/05/15 17:06:09;;;;;;;2.90;1.00;;;28.80;39.10;;;;;;6237283;28;20136;-86